createdAt,value
2022-12-31T00:01:47.028Z,76.17
2022-12-31T00:04:13.677Z,76.59
2022-12-31T00:06:40.231Z,75.44
2022-12-31T00:09:10.445Z,75.59
2022-12-31T00:11:37.372Z,75.84
2022-12-31T00:14:04.385Z,76.62
2022-12-31T00:16:33.079Z,77.40
2022-12-31T00:19:00.372Z,77.87
2022-12-31T00:21:28.004Z,77.43
2022-12-31T00:23:57.128Z,77.72
2022-12-31T00:26:25.215Z,77.69
2022-12-31T00:28:52.817Z,78.21
2022-12-31T00:31:23.631Z,78.80
2022-12-31T00:33:52.644Z,78.34
2022-12-31T00:36:23.732Z,78.03
2022-12-31T00:38:51.233Z,78.76
2022-12-31T00:41:20.625Z,78.62
2022-12-31T00:43:50.062Z,78.39
2022-12-31T00:46:17.316Z,77.93
2022-12-31T00:48:47.344Z,77.92
2022-12-31T00:51:15.468Z,77.99
2022-12-31T00:53:42.131Z,76.66
2022-12-31T00:56:11.315Z,76.46
2022-12-31T00:58:38.252Z,76.15
2022-12-31T01:01:23.574Z,75.44
2022-12-31T01:03:51.172Z,76.68
2022-12-31T01:06:17.802Z,75.86
2022-12-31T01:08:44.435Z,76.75
2022-12-31T01:11:22.974Z,76.65
2022-12-31T01:14:00.002Z,76.44
2022-12-31T01:16:28.535Z,77.27
2022-12-31T01:18:55.627Z,76.85
2022-12-31T01:21:22.449Z,77.25
2022-12-31T01:23:49.005Z,76.92
2022-12-31T01:26:16.726Z,76.86
2022-12-31T01:28:43.298Z,76.52
2022-12-31T01:31:12.395Z,76.15
2022-12-31T01:33:39.365Z,76.31
2022-12-31T01:36:07.424Z,77.01
2022-12-31T01:38:34.469Z,76.57
2022-12-31T01:41:01.517Z,76.37
2022-12-31T01:43:46.857Z,75.43
2022-12-31T01:46:17.397Z,75.91
2022-12-31T01:48:45.985Z,75.23
2022-12-31T01:51:12.873Z,74.45
2022-12-31T01:53:41.029Z,73.67
2022-12-31T01:56:08.691Z,74.91
2022-12-31T01:58:40.124Z,74.54
2022-12-31T02:01:07.807Z,74.51
2022-12-31T02:03:34.765Z,74.91
2022-12-31T02:06:05.280Z,75.23
2022-12-31T02:08:35.772Z,75.00
2022-12-31T02:11:21.509Z,76.60
2022-12-31T02:13:55.021Z,77.29
2022-12-31T02:16:44.928Z,78.03
2022-12-31T02:19:11.444Z,77.64
2022-12-31T02:21:50.142Z,79.13
2022-12-31T02:24:22.606Z,80.22
2022-12-31T02:27:01.923Z,79.62
2022-12-31T02:29:28.522Z,78.48
2022-12-31T02:32:00.309Z,79.42
2022-12-31T02:34:26.878Z,79.47
2022-12-31T02:36:55.030Z,79.28
2022-12-31T02:39:21.983Z,79.67
2022-12-31T02:41:52.864Z,78.76
2022-12-31T02:44:23.693Z,78.18
2022-12-31T02:47:10.649Z,77.79
2022-12-31T02:49:56.017Z,77.41
2022-12-31T02:52:25.372Z,79.35
2022-12-31T02:54:54.930Z,78.23
2022-12-31T02:57:33.850Z,78.65
2022-12-31T03:00:29.928Z,78.78
2022-12-31T03:02:57.661Z,80.13
2022-12-31T03:05:25.911Z,79.30
2022-12-31T03:07:53.842Z,79.18
2022-12-31T03:10:20.383Z,78.85
2022-12-31T03:12:47.507Z,78.94
2022-12-31T03:15:21.802Z,78.26
2022-12-31T03:17:49.675Z,79.54
2022-12-31T03:20:35.399Z,78.61
2022-12-31T03:23:05.858Z,79.64
2022-12-31T03:25:41.639Z,78.96
2022-12-31T03:28:10.415Z,79.95
2022-12-31T03:30:38.348Z,78.72
2022-12-31T03:33:05.483Z,79.64
2022-12-31T03:35:35.470Z,77.85
2022-12-31T03:38:02.207Z,78.11
2022-12-31T03:40:32.086Z,78.26
2022-12-31T03:42:58.681Z,77.76
2022-12-31T03:45:25.224Z,78.13
2022-12-31T03:47:51.875Z,77.86
2022-12-31T03:50:18.725Z,78.25
2022-12-31T03:52:45.790Z,79.28
2022-12-31T03:55:13.020Z,80.60
2022-12-31T03:57:40.323Z,80.88
2022-12-31T04:00:08.608Z,81.27
2022-12-31T04:02:35.331Z,81.60
2022-12-31T04:05:01.924Z,82.50
2022-12-31T04:07:29.535Z,82.27
2022-12-31T04:09:56.096Z,82.85
2022-12-31T04:12:22.726Z,84.59
2022-12-31T04:14:49.287Z,85.49
2022-12-31T04:17:18.940Z,85.44
2022-12-31T04:19:45.565Z,84.55
2022-12-31T04:22:12.149Z,85.21
2022-12-31T04:24:39.376Z,85.04
2022-12-31T04:27:07.963Z,86.28
2022-12-31T04:29:35.196Z,87.38
2022-12-31T04:32:01.961Z,87.15
2022-12-31T04:34:30.861Z,87.21
2022-12-31T04:36:57.482Z,87.67
2022-12-31T04:39:24.254Z,88.88
2022-12-31T04:41:50.938Z,87.35
2022-12-31T04:44:17.523Z,88.04
2022-12-31T04:46:44.205Z,89.09
2022-12-31T04:49:10.746Z,88.08
2022-12-31T04:51:37.612Z,87.35
2022-12-31T04:56:44.962Z,87.43
2022-12-31T04:59:14.207Z,87.81
2022-12-31T05:01:43.072Z,87.26
2022-12-31T05:04:10.363Z,86.94
2022-12-31T05:06:36.967Z,87.29
2022-12-31T05:09:03.493Z,86.80
2022-12-31T05:11:30.057Z,87.09
2022-12-31T05:13:56.640Z,85.43
2022-12-31T05:16:23.402Z,84.60
2022-12-31T05:18:49.964Z,85.55
2022-12-31T05:21:19.412Z,85.80
2022-12-31T05:23:45.939Z,84.83
2022-12-31T05:26:16.034Z,84.04
2022-12-31T05:28:45.111Z,84.92
2022-12-31T05:31:11.661Z,83.92
2022-12-31T05:33:38.231Z,83.17
2022-12-31T05:36:04.989Z,82.88
2022-12-31T05:38:31.578Z,81.43
2022-12-31T05:41:04.196Z,80.84
2022-12-31T05:43:31.394Z,80.35
2022-12-31T05:46:00.536Z,79.81
2022-12-31T05:48:27.102Z,78.68
2022-12-31T05:50:56.789Z,78.37
2022-12-31T05:53:23.353Z,78.77
2022-12-31T05:55:49.957Z,77.96
2022-12-31T05:58:16.675Z,77.43
2022-12-31T06:00:43.220Z,76.58
2022-12-31T06:03:12.390Z,76.94
2022-12-31T06:05:41.653Z,76.16
2022-12-31T06:08:12.189Z,77.00
2022-12-31T06:10:39.313Z,76.10
2022-12-31T06:13:05.902Z,76.76
2022-12-31T06:15:32.777Z,76.93
2022-12-31T06:17:59.379Z,77.82
2022-12-31T06:20:26.021Z,79.68
2022-12-31T06:22:52.545Z,81.07
2022-12-31T06:25:19.131Z,83.03
2022-12-31T06:27:45.750Z,84.24
2022-12-31T06:30:12.670Z,86.67
2022-12-31T06:32:40.731Z,86.79
2022-12-31T06:35:07.605Z,87.53
2022-12-31T06:37:36.728Z,88.05
2022-12-31T06:40:03.473Z,87.38
2022-12-31T06:42:33.568Z,88.03
2022-12-31T06:45:00.203Z,89.69
2022-12-31T06:47:29.176Z,89.77
2022-12-31T06:49:55.881Z,91.59
2022-12-31T06:52:22.438Z,90.75
2022-12-31T06:54:49.220Z,90.72
2022-12-31T06:57:16.011Z,90.88
2022-12-31T06:59:43.206Z,91.29
2022-12-31T07:02:28.798Z,90.90
2022-12-31T07:05:08.935Z,90.51
2022-12-31T07:07:46.207Z,90.86
2022-12-31T07:10:12.825Z,90.42
2022-12-31T07:12:47.181Z,90.17
2022-12-31T07:15:29.903Z,90.22
2022-12-31T07:17:58.188Z,90.47
2022-12-31T07:20:24.923Z,89.87
2022-12-31T07:22:58.726Z,90.23
2022-12-31T07:25:26.712Z,91.23
2022-12-31T07:28:01.657Z,91.15
2022-12-31T07:30:31.032Z,90.21
2022-12-31T07:33:08.963Z,89.72
2022-12-31T07:35:54.811Z,88.50
2022-12-31T07:38:40.139Z,89.19
2022-12-31T07:41:15.943Z,90.42
2022-12-31T07:43:54.969Z,87.38
2022-12-31T07:46:27.742Z,87.32
2022-12-31T07:48:54.477Z,87.94
2022-12-31T07:51:21.207Z,87.11
2022-12-31T07:53:47.820Z,88.70
2022-12-31T07:56:14.378Z,87.71
2022-12-31T07:58:41.012Z,87.14
2022-12-31T08:01:16.327Z,88.11
2022-12-31T08:03:45.854Z,87.76
2022-12-31T08:06:31.572Z,87.33
2022-12-31T08:09:18.368Z,86.66
2022-12-31T08:11:44.941Z,87.21
2022-12-31T08:14:13.234Z,87.86
2022-12-31T08:16:40.068Z,87.34
2022-12-31T08:19:07.085Z,87.47
2022-12-31T08:21:48.820Z,88.55
2022-12-31T08:24:40.242Z,88.08
2022-12-31T08:27:21.026Z,88.27
2022-12-31T08:30:09.517Z,88.45
2022-12-31T08:32:48.314Z,88.48
2022-12-31T08:35:18.779Z,87.93
2022-12-31T08:37:51.474Z,89.85
2022-12-31T08:40:18.092Z,88.06
2022-12-31T08:42:56.811Z,88.56
2022-12-31T08:45:28.645Z,88.88
2022-12-31T08:48:00.263Z,88.85
2022-12-31T08:50:27.716Z,88.98
2022-12-31T08:52:54.490Z,88.54
2022-12-31T08:55:21.949Z,87.68
2022-12-31T08:58:06.734Z,87.67
2022-12-31T09:00:34.058Z,87.91
2022-12-31T09:03:00.594Z,88.48
2022-12-31T09:05:53.002Z,88.28
2022-12-31T09:08:30.466Z,85.46
2022-12-31T09:11:07.879Z,85.00
2022-12-31T09:13:49.559Z,84.94
2022-12-31T09:16:22.810Z,86.86
2022-12-31T09:18:49.400Z,87.02
2022-12-31T09:21:16.439Z,86.58
2022-12-31T09:23:46.103Z,86.86
2022-12-31T09:26:18.885Z,87.38
2022-12-31T09:29:04.201Z,87.20
2022-12-31T09:31:55.330Z,88.60
2022-12-31T09:34:36.351Z,88.08
2022-12-31T09:37:06.730Z,88.15
2022-12-31T09:39:42.885Z,88.34
2022-12-31T09:42:09.422Z,88.68
2022-12-31T09:44:39.118Z,90.63
2022-12-31T09:47:08.564Z,90.17
2022-12-31T09:50:00.871Z,90.37
2022-12-31T09:52:45.951Z,90.40
2022-12-31T09:55:12.530Z,90.52
2022-12-31T09:57:39.648Z,90.73
2022-12-31T10:00:13.200Z,90.42
2022-12-31T10:02:54.699Z,91.40
2022-12-31T10:05:33.206Z,91.47
2022-12-31T10:08:18.425Z,91.48
2022-12-31T10:10:53.701Z,90.95
2022-12-31T10:13:25.799Z,90.80
2022-12-31T10:16:10.478Z,91.02
2022-12-31T10:18:46.303Z,91.55
2022-12-31T10:21:12.897Z,89.68
2022-12-31T10:23:39.393Z,89.41
2022-12-31T10:26:17.447Z,90.38
2022-12-31T10:29:02.753Z,89.57
2022-12-31T10:31:49.590Z,88.98
2022-12-31T10:34:49.598Z,88.97
2022-12-31T10:37:18.226Z,87.30
2022-12-31T10:39:51.000Z,87.17
2022-12-31T10:42:35.856Z,85.27
2022-12-31T10:45:20.520Z,84.78
2022-12-31T10:47:53.034Z,81.26
2022-12-31T10:50:38.102Z,80.15
2022-12-31T10:53:07.582Z,79.68
2022-12-31T10:55:52.383Z,79.59
2022-12-31T10:58:27.382Z,78.15
2022-12-31T11:01:20.345Z,77.91
2022-12-31T11:03:56.078Z,79.05
2022-12-31T11:06:43.495Z,77.68
2022-12-31T11:09:13.170Z,77.44
2022-12-31T11:11:53.639Z,76.81
2022-12-31T11:14:34.974Z,76.64
2022-12-31T11:17:01.508Z,76.04
2022-12-31T11:19:53.962Z,76.33
2022-12-31T11:22:44.188Z,74.42
2022-12-31T11:25:31.268Z,75.45
2022-12-31T11:28:11.938Z,74.50
2022-12-31T11:30:56.000Z,74.36
2022-12-31T11:33:52.172Z,73.10
2022-12-31T11:36:33.120Z,72.96
2022-12-31T11:39:24.628Z,73.13
2022-12-31T11:42:03.112Z,72.63
2022-12-31T11:44:40.472Z,72.34
2022-12-31T11:47:25.900Z,71.38
2022-12-31T11:49:55.349Z,71.61
2022-12-31T11:52:24.827Z,70.72
2022-12-31T11:55:00.553Z,70.83
2022-12-31T11:57:29.888Z,70.20
2022-12-31T11:59:57.779Z,69.57
2022-12-31T12:02:26.826Z,70.24
2022-12-31T12:04:55.204Z,70.00
2022-12-31T12:07:22.014Z,70.31
2022-12-31T12:09:49.121Z,70.40
2022-12-31T12:12:16.487Z,69.83
2022-12-31T12:14:44.307Z,69.55
2022-12-31T12:17:15.381Z,69.06
2022-12-31T12:19:46.486Z,68.59
2022-12-31T12:22:14.756Z,68.08
2022-12-31T12:24:51.708Z,67.62
2022-12-31T12:27:20.521Z,67.76
2022-12-31T12:29:54.935Z,69.08
2022-12-31T12:32:24.932Z,72.14
2022-12-31T12:34:52.144Z,73.34
2022-12-31T12:37:24.507Z,72.55
2022-12-31T12:40:02.193Z,72.06
2022-12-31T12:42:29.920Z,72.32
2022-12-31T12:45:08.182Z,70.95
2022-12-31T12:47:42.547Z,70.99
2022-12-31T12:50:20.982Z,70.30
2022-12-31T12:53:03.725Z,68.72
2022-12-31T12:55:41.353Z,67.90
2022-12-31T12:58:29.652Z,66.58
2022-12-31T13:01:03.108Z,66.14
2022-12-31T13:04:07.396Z,65.66
2022-12-31T13:06:47.326Z,65.39
2022-12-31T13:09:32.730Z,64.78
2022-12-31T13:12:07.311Z,65.19
2022-12-31T13:14:49.954Z,64.72
2022-12-31T13:17:39.759Z,64.51
2022-12-31T13:20:06.665Z,63.99
2022-12-31T13:22:56.730Z,64.02
2022-12-31T13:25:32.360Z,63.40
2022-12-31T13:28:02.686Z,63.47
2022-12-31T13:30:40.336Z,63.72
2022-12-31T13:33:16.227Z,63.35
2022-12-31T13:35:43.743Z,63.21
2022-12-31T13:38:21.734Z,62.77
2022-12-31T13:40:51.996Z,62.15
2022-12-31T13:43:24.628Z,62.74
2022-12-31T13:45:58.259Z,62.23
2022-12-31T13:48:32.754Z,62.71
2022-12-31T13:51:08.000Z,62.31
2022-12-31T13:53:45.063Z,62.64
2022-12-31T13:56:14.938Z,62.25
2022-12-31T13:58:50.542Z,62.30
2022-12-31T14:01:33.681Z,61.69
2022-12-31T14:04:16.701Z,63.02
2022-12-31T14:06:43.280Z,62.98
2022-12-31T14:09:14.721Z,65.29
2022-12-31T14:12:00.473Z,65.64
2022-12-31T14:14:42.365Z,68.52
2022-12-31T14:17:19.661Z,68.42
2022-12-31T14:19:55.091Z,67.13
2022-12-31T14:22:24.730Z,66.69
2022-12-31T14:24:54.381Z,66.92
2022-12-31T14:27:27.105Z,66.28
2022-12-31T14:29:56.449Z,66.08
2022-12-31T14:32:28.825Z,65.72
2022-12-31T14:35:13.987Z,66.18
2022-12-31T14:38:00.819Z,66.06
2022-12-31T14:40:48.959Z,65.66
2022-12-31T14:43:21.688Z,65.98
2022-12-31T14:45:48.321Z,66.45
2022-12-31T14:48:21.832Z,66.31
2022-12-31T14:50:51.671Z,65.69
2022-12-31T14:53:22.564Z,66.03
2022-12-31T14:56:08.243Z,66.04
2022-12-31T14:58:38.891Z,65.40
2022-12-31T15:01:22.186Z,65.50
2022-12-31T15:03:50.569Z,65.24
2022-12-31T15:06:23.299Z,64.66
2022-12-31T15:09:08.779Z,64.58
2022-12-31T15:11:58.819Z,64.30
2022-12-31T15:14:37.845Z,64.32
2022-12-31T15:17:07.491Z,64.09
2022-12-31T15:19:52.633Z,64.28
2022-12-31T15:22:31.686Z,64.15
2022-12-31T15:25:01.317Z,63.69
2022-12-31T15:27:35.967Z,63.89
2022-12-31T15:30:03.245Z,64.37
2022-12-31T15:32:40.233Z,63.85
2022-12-31T15:35:22.308Z,63.39
2022-12-31T15:38:12.155Z,63.39
2022-12-31T15:40:47.986Z,62.80
2022-12-31T15:43:16.936Z,62.54
2022-12-31T15:45:43.837Z,62.55
2022-12-31T15:48:15.501Z,62.94
2022-12-31T15:50:43.332Z,62.91
2022-12-31T15:53:20.821Z,62.71
2022-12-31T15:55:52.973Z,62.06
2022-12-31T15:58:22.490Z,62.42
2022-12-31T16:01:03.774Z,62.42
2022-12-31T16:03:31.729Z,62.82
2022-12-31T16:06:02.733Z,62.42
2022-12-31T16:08:31.620Z,62.58
2022-12-31T16:10:58.876Z,62.44
2022-12-31T16:13:29.554Z,62.25
2022-12-31T16:16:06.489Z,62.74
2022-12-31T16:18:40.036Z,62.92
2022-12-31T16:21:22.441Z,62.38
2022-12-31T16:23:56.834Z,61.44
2022-12-31T16:26:25.354Z,61.99
2022-12-31T16:28:52.002Z,61.88
2022-12-31T16:31:19.875Z,61.66
2022-12-31T16:33:46.778Z,61.38
2022-12-31T16:36:19.766Z,61.06
2022-12-31T16:38:46.376Z,60.85
2022-12-31T16:41:20.363Z,60.09
2022-12-31T16:43:51.539Z,60.31
2022-12-31T16:46:18.132Z,60.08
2022-12-31T16:48:49.928Z,60.37
2022-12-31T16:51:18.811Z,60.66
2022-12-31T16:53:47.162Z,60.53
2022-12-31T16:56:19.841Z,60.10
2022-12-31T16:58:46.491Z,60.44
2022-12-31T17:01:23.313Z,60.22
2022-12-31T17:03:52.551Z,60.18
2022-12-31T17:06:20.111Z,60.34
2022-12-31T17:09:02.442Z,59.81
2022-12-31T17:11:34.043Z,60.38
2022-12-31T17:14:06.890Z,59.78
2022-12-31T17:16:38.448Z,60.24
2022-12-31T17:19:05.026Z,60.22
2022-12-31T17:21:34.602Z,60.45
2022-12-31T17:24:03.243Z,59.97
2022-12-31T17:26:32.439Z,60.16
2022-12-31T17:28:59.964Z,59.70
2022-12-31T17:31:29.345Z,59.83
2022-12-31T17:34:06.747Z,59.96
2022-12-31T17:36:33.402Z,59.45
2022-12-31T17:39:19.375Z,61.34
2022-12-31T17:41:46.995Z,61.64
2022-12-31T17:44:26.057Z,61.51
2022-12-31T17:46:52.997Z,62.25
2022-12-31T17:49:27.226Z,61.75
2022-12-31T17:51:53.935Z,62.26
2022-12-31T17:54:20.457Z,62.80
2022-12-31T17:56:54.645Z,62.88
2022-12-31T17:59:22.643Z,62.83
2022-12-31T18:01:49.623Z,62.84
2022-12-31T18:04:17.031Z,62.92
2022-12-31T18:06:46.282Z,63.25
2022-12-31T18:09:12.906Z,64.05
2022-12-31T18:11:40.165Z,64.26
2022-12-31T18:14:07.321Z,64.11
2022-12-31T18:16:34.360Z,63.34
2022-12-31T18:19:01.262Z,63.53
2022-12-31T18:21:34.693Z,63.73
2022-12-31T18:26:28.863Z,63.28
2022-12-31T18:28:56.826Z,63.42
2022-12-31T18:31:27.819Z,62.93
2022-12-31T18:33:55.365Z,63.29
2022-12-31T18:36:22.562Z,62.97
2022-12-31T18:38:49.395Z,63.17
2022-12-31T18:41:15.887Z,62.86
2022-12-31T18:43:42.478Z,62.86
2022-12-31T18:46:13.675Z,62.69
2022-12-31T18:48:43.712Z,62.61
2022-12-31T18:51:12.944Z,62.35
2022-12-31T18:53:39.505Z,63.04
2022-12-31T18:56:06.295Z,62.57
2022-12-31T18:58:32.900Z,62.99
2022-12-31T19:00:59.493Z,62.91
2022-12-31T19:03:28.291Z,62.07
2022-12-31T19:05:58.049Z,62.59
2022-12-31T19:08:24.622Z,62.17
2022-12-31T19:10:52.281Z,62.28
2022-12-31T19:13:20.143Z,62.78
2022-12-31T19:15:51.179Z,62.19
2022-12-31T19:18:20.689Z,61.41
2022-12-31T19:20:47.744Z,61.44
2022-12-31T19:23:18.331Z,61.18
2022-12-31T19:25:45.873Z,60.84
2022-12-31T19:28:17.472Z,60.90
2022-12-31T19:30:44.710Z,60.25
2022-12-31T19:33:11.725Z,60.91
2022-12-31T19:35:38.716Z,60.66
2022-12-31T19:38:06.229Z,60.36
2022-12-31T19:40:32.838Z,59.86
2022-12-31T19:42:59.416Z,59.83
2022-12-31T19:45:27.380Z,59.35
2022-12-31T19:47:54.626Z,59.67
2022-12-31T19:50:22.373Z,59.20
2022-12-31T19:52:50.090Z,59.06
2022-12-31T19:55:19.379Z,58.89
2022-12-31T19:57:48.970Z,59.10
2022-12-31T20:00:16.897Z,58.98
2022-12-31T20:02:44.598Z,58.58
2022-12-31T20:05:12.225Z,58.75
2022-12-31T20:07:38.776Z,58.26
2022-12-31T20:10:08.464Z,58.38
2022-12-31T20:12:40.589Z,58.67
2022-12-31T20:15:10.796Z,58.38
2022-12-31T20:17:37.337Z,58.72
2022-12-31T20:20:05.037Z,58.82
2022-12-31T20:22:31.561Z,58.58
2022-12-31T20:24:58.323Z,58.35
2022-12-31T20:27:24.867Z,58.68
2022-12-31T20:29:54.005Z,58.07
2022-12-31T20:32:20.537Z,57.77
2022-12-31T20:34:47.099Z,57.99
2022-12-31T20:37:13.663Z,57.75
2022-12-31T20:39:40.233Z,57.61
2022-12-31T20:42:06.982Z,57.02
2022-12-31T20:44:33.843Z,57.18
2022-12-31T20:47:00.352Z,56.78
2022-12-31T20:49:44.861Z,56.64
2022-12-31T20:52:13.497Z,56.17
2022-12-31T20:54:40.093Z,56.46
2022-12-31T20:57:06.856Z,56.66
2022-12-31T20:59:35.722Z,56.35
2022-12-31T21:04:49.082Z,55.81
2022-12-31T21:07:18.868Z,56.55
2022-12-31T21:09:45.426Z,55.99
2022-12-31T21:12:30.869Z,56.32
2022-12-31T21:14:57.840Z,56.72
2022-12-31T21:17:25.295Z,56.30
2022-12-31T21:19:55.111Z,55.49
2022-12-31T21:22:23.053Z,55.72
2022-12-31T21:24:49.597Z,56.03
2022-12-31T21:27:16.257Z,55.57
2022-12-31T21:30:16.321Z,55.78
2022-12-31T21:32:29.468Z,55.35
2022-12-31T21:35:39.513Z,55.20
2022-12-31T21:37:58.953Z,55.63
2022-12-31T21:40:28.493Z,54.90
2022-12-31T21:42:55.284Z,55.09
2022-12-31T21:45:24.743Z,54.89
2022-12-31T21:48:10.739Z,55.19
2022-12-31T21:50:37.390Z,55.05
2022-12-31T21:53:04.274Z,54.36
2022-12-31T21:55:49.690Z,54.24
2022-12-31T21:58:27.737Z,53.62
2022-12-31T22:01:14.628Z,54.06
2022-12-31T22:03:41.647Z,53.87
2022-12-31T22:06:16.339Z,53.74
2022-12-31T22:08:46.274Z,53.84
2022-12-31T22:11:13.498Z,53.97
2022-12-31T22:13:40.267Z,53.71
2022-12-31T22:16:07.297Z,53.84
2022-12-31T22:18:35.752Z,53.79
2022-12-31T22:21:02.431Z,53.60
2022-12-31T22:23:31.701Z,53.64
2022-12-31T22:25:58.280Z,53.15
2022-12-31T22:28:38.257Z,53.04
2022-12-31T22:31:06.358Z,52.99
2022-12-31T22:33:32.963Z,53.38
2022-12-31T22:36:04.413Z,52.86
2022-12-31T22:38:31.327Z,52.88
2022-12-31T22:41:01.773Z,53.75
2022-12-31T22:43:30.454Z,52.70
2022-12-31T22:45:56.971Z,52.67
2022-12-31T22:48:23.606Z,52.40
2022-12-31T22:50:57.106Z,53.10
2022-12-31T22:53:23.837Z,52.66
2022-12-31T22:55:52.986Z,52.82
2022-12-31T22:58:19.852Z,52.82
2022-12-31T23:00:46.983Z,53.05
2022-12-31T23:03:13.928Z,52.55
2022-12-31T23:05:40.779Z,52.05
2022-12-31T23:08:18.672Z,52.20
2022-12-31T23:11:10.403Z,51.95
2022-12-31T23:13:57.287Z,52.03
2022-12-31T23:16:43.674Z,51.99
2022-12-31T23:19:28.871Z,52.20
2022-12-31T23:22:14.173Z,51.89
2022-12-31T23:24:41.045Z,52.04
2022-12-31T23:27:07.651Z,51.75
2022-12-31T23:29:34.248Z,51.95
2022-12-31T23:32:00.798Z,51.47
2022-12-31T23:34:27.401Z,51.52
2022-12-31T23:36:54.057Z,51.56
2022-12-31T23:39:20.768Z,51.81
2022-12-31T23:41:47.304Z,51.34
2022-12-31T23:44:13.910Z,51.77
2022-12-31T23:46:40.568Z,51.66
2022-12-31T23:49:07.155Z,51.43
2022-12-31T23:51:33.682Z,51.37
2022-12-31T23:54:00.899Z,51.46
2022-12-31T23:56:27.549Z,52.12
2022-12-31T23:58:55.578Z,51.77
